Pagrindinis puslapis
METAR-TAF:

METAR-TAF

Oro uostai :

Krajova, Rumunija

platuma: 44-14N, ilguma: 023-52E, Aukštis: 192 m

Dabartinis oras

Ataskaita buvo paskelbta 26 minutes, ne 08:00 UTC
Vėjas 13 kt iš Vakarų
Temperatūra 6°C
Drėgmė 75%
Slėgis 1000 hPa
Matomumas 10 km arba daugiau
nėra debesų žemiau 1500 m ir nėra kamuolinių lietaus debesų

METAR: LRCV 270800Z 28013KT CAVOK 06/02 Q1000 R27/29//95

Laikas: 10:26 (08:26 UTC)

Prognozė

Ataskaita buvo paskelbta 3 valandos ir 26 minutes, ne 05:00 UTC
Prognozė galioja nuo 27 metu 06 UTC su 27 metu 15 UTC
Vėjas 15 kt iš Vakarų/Šiaurės Vakarų
Matomumas 10 km arba daugiau
nėra debesų žemiau 1500 m ir nėra kamuolinių lietaus debesų
Tikimybė 30% :
Laikinai
nuo 27 metu 10 UTC su 27 metu 15 UTC
Vėjas 20 kt iš Vakarų su gūsio iki 30 kt

TAF: LRCV 270500Z 2706/2715 29015KT CAVOK PROB30 TEMPO 2710/2715 27020G30KT

Orai ataskaitas ir orų prognozės (METAR, TAF).

turimą stotys yra geltonos ir raudonos taškus žemėlapyje.

Perkelti pele per norėdami pamatyti stoties vardą.

Tada spustelėkite, norėdami matyti oro stebėjimo ir prognozės.

Norėdami pakeisti žemėlapį: spustelėkite ant žalios mygtukų su juodo kryžiaus žemyn,; žalią mygtuką su brūkšneliu, jei norite nutolinti; arba žalių rodyklių gretimoms žemėlapius.


METAR-TAF: